Brimley, Michigan
Current Conditions -  °F | °C
As of 5:00 PM on Wednesday 22 Oct 2014 (Local Time) from CYAM Reporting Station
Clear Clear  
Wind Chill: 50°   Ceiling: Unl
Heat Index: 50°   Visibility: 15mi
Dew Point: 30°   Wind: 5mph
Humidity: 47%   Direction: 60°ENE
Pressure: 30.33"   Gusts: NA
Location:  46.41°N, 84.57°W
Report Text: CYAM 222100Z 06004KT 15SM SKC 10/M01 A3033 RMK SLP280
Loading
Personal Weather Stations






























Interactive Weather Map
Tropical Storm Tracking
New forecast layout! Learn more

10-Day Weather Forecast

Advertisements
Track Severe Weather on mobile